Time;durP1;ratioP1;P1;durP2;ratioP2;P2;SDS_P1;SDS_P2;PMS_P1;PMS_P2;Temp;Humidity;BMP_temperature;BMP_pressure;BME280_temperature;BME280_humidity;BME280_pressure;Samples;Min_cycle;Max_cycle;Signal;HPM_P1;HPM_P2
2022/08/14 00:00:45;;;;;;;38.08;7.78;;;28.20;99.90;;;;;;5067135;28;20542;-66
2022/08/14 00:03:30;;;;;;;41.33;9.10;;;27.60;99.90;;;;;;5066206;28;20083;-64
2022/08/14 00:05:59;;;;;;;37.42;7.03;;;27.20;99.90;;;;;;5052778;28;20159;-65
2022/08/14 00:08:25;;;;;;;31.25;9.05;;;26.90;99.90;;;;;;5067349;28;20069;-65
2022/08/14 00:10:52;;;;;;;22.95;6.43;;;26.80;99.90;;;;;;5067965;28;20101;-63
2022/08/14 00:13:22;;;;;;;11.93;4.72;;;26.80;99.90;;;;;;5068455;28;20098;-65
2022/08/14 00:15:50;;;;;;;18.45;6.45;;;26.80;99.90;;;;;;5067873;28;20084;-64
2022/08/14 00:18:22;;;;;;;36.55;10.82;;;26.90;99.90;;;;;;5066794;28;20142;-63
2022/08/14 00:20:50;;;;;;;40.20;11.07;;;26.90;99.90;;;;;;5065888;28;20100;-65
2022/08/14 00:23:17;;;;;;;45.33;11.48;;;26.70;99.90;;;;;;5067433;28;20072;-66
2022/08/14 00:25:50;;;;;;;32.05;10.73;;;26.70;99.90;;;;;;5069544;28;20106;-65
2022/08/14 00:28:17;;;;;;;47.38;13.90;;;26.90;99.90;;;;;;5068018;28;20082;-68
2022/08/14 00:30:45;;;;;;;47.83;16.88;;;27.10;99.90;;;;;;5066771;28;20072;-66
2022/08/14 00:33:12;;;;;;;45.35;14.27;;;27.40;99.90;;;;;;5067200;28;20084;-65
2022/08/14 00:35:38;;;;;;;39.50;15.85;;;27.50;99.90;;;;;;5065501;28;20506;-65
2022/08/14 00:38:05;;;;;;;37.88;14.63;;;27.80;99.90;;;;;;5066913;28;20193;-67
2022/08/14 00:40:31;;;;;;;26.02;9.00;;;27.90;99.90;;;;;;5065016;28;20119;-66
2022/08/14 00:42:58;;;;;;;25.17;8.95;;;27.80;99.90;;;;;;5065908;28;20210;-66
2022/08/14 00:45:25;;;;;;;27.58;9.77;;;27.60;99.90;;;;;;5066279;28;20575;-66
2022/08/14 00:47:51;;;;;;;40.13;13.25;;;27.60;99.90;;;;;;5067232;28;20072;-66
2022/08/14 00:50:21;;;;;;;39.20;12.40;;;27.70;99.90;;;;;;5062814;28;20165;-65
2022/08/14 00:52:51;;;;;;;38.60;13.93;;;27.70;99.90;;;;;;5068004;28;20076;-67
2022/08/14 00:55:19;;;;;;;39.58;15.13;;;28.00;99.90;;;;;;5065860;28;20076;-66
2022/08/14 00:58:29;;;;;;;38.95;15.68;;;28.00;99.90;;;;;;5049674;28;20096;-67
2022/08/14 01:00:37;;;;;;;41.28;14.55;;;28.00;99.90;;;;;;5067373;28;20084;-68
2022/08/14 01:03:05;;;;;;;23.63;9.23;;;28.10;99.90;;;;;;5066935;28;20522;-67
2022/08/14 01:05:32;;;;;;;27.50;8.55;;;28.10;99.90;;;;;;5065776;28;20099;-67
2022/08/14 01:08:00;;;;;;;25.88;8.27;;;28.10;99.90;;;;;;5068361;28;20525;-67
2022/08/14 01:13:16;;;;;;;21.90;8.75;;;28.30;99.90;;;;;;5069114;28;20165;-69
2022/08/14 01:15:44;;;;;;;23.25;8.07;;;28.30;99.90;;;;;;5065790;28;20087;-68
2022/08/14 01:21:05;;;;;;;25.27;6.55;;;28.60;99.90;;;;;;5067938;28;20234;-68
2022/08/14 01:23:36;;;;;;;16.45;6.78;;;28.70;99.90;;;;;;5065815;28;20092;-68
2022/08/14 01:26:03;;;;;;;16.80;6.57;;;28.80;99.90;;;;;;5065103;28;20076;-68
2022/08/14 01:28:36;;;;;;;18.05;6.40;;;28.90;99.90;;;;;;5064637;28;20123;-68
2022/08/14 01:31:12;;;;;;;26.33;7.05;;;28.90;99.90;;;;;;5050713;28;20171;-67
2022/08/14 01:33:43;;;;;;;18.00;6.95;;;28.90;99.90;;;;;;5068051;28;20102;-66
2022/08/14 01:36:10;;;;;;;17.42;5.65;;;29.00;99.90;;;;;;5069109;28;20645;-68
2022/08/14 01:38:39;;;;;;;17.92;5.68;;;29.10;99.90;;;;;;5069234;28;20075;-69
2022/08/14 01:41:11;;;;;;;19.60;5.88;;;29.10;99.90;;;;;;5069606;28;20130;-68
2022/08/14 01:43:48;;;;;;;18.40;6.28;;;29.20;99.90;;;;;;5067716;28;20079;-66
2022/08/14 01:46:15;;;;;;;;;;;29.30;99.90;;;;;;5069174;28;20164;-66
2022/08/14 01:48:43;;;;;;;16.88;6.53;;;29.40;99.90;;;;;;5067622;28;19963;-66
2022/08/14 01:51:12;;;;;;;16.88;5.60;;;29.30;99.90;;;;;;5067010;28;20075;-66
2022/08/14 01:53:46;;;;;;;22.83;7.30;;;29.50;99.90;;;;;;5067106;28;20585;-68
2022/08/14 01:56:19;;;;;;;31.92;8.10;;;29.50;99.90;;;;;;5066620;28;20529;-67
2022/08/14 01:58:48;;;;;;;19.20;6.70;;;29.60;99.90;;;;;;5066843;28;20079;-67
2022/08/14 02:01:24;;;;;;;17.20;5.95;;;29.60;99.90;;;;;;5067836;28;20140;-67
2022/08/14 02:03:50;;;;;;;20.05;5.68;;;29.60;99.90;;;;;;5068790;28;20071;-68
2022/08/14 02:06:16;;;;;;;28.55;5.68;;;29.70;99.90;;;;;;5068216;28;20068;-66
2022/08/14 02:08:43;;;;;;;20.48;5.72;;;29.90;99.90;;;;;;5072546;28;20114;-67
2022/08/14 02:11:23;;;;;;;18.05;5.85;;;29.90;99.90;;;;;;5069006;28;20076;-64
2022/08/14 02:13:57;;;;;;;20.77;6.10;;;30.00;99.90;;;;;;5073416;28;20097;-67
2022/08/14 02:16:32;;;;;;;22.83;6.13;;;30.00;99.90;;;;;;5070187;28;20106;-67
2022/08/14 02:19:00;;;;;;;23.83;6.22;;;30.00;99.90;;;;;;5114792;22;20198;-61
2022/08/14 02:21:31;;;;;;;21.83;6.85;;;30.00;99.90;;;;;;5072316;28;20133;-61
2022/08/14 02:24:00;;;;;;;33.42;10.95;;;30.00;99.90;;;;;;5073280;28;20548;-63
2022/08/14 02:26:32;;;;;;;31.23;18.33;;;30.00;99.90;;;;;;5072453;28;20076;-61
2022/08/14 02:29:05;;;;;;;36.55;18.60;;;30.10;99.90;;;;;;5071011;28;20072;-62
2022/08/14 02:31:35;;;;;;;27.85;10.65;;;30.10;99.90;;;;;;5070463;28;20083;-61
2022/08/14 02:34:17;;;;;;;26.25;13.93;;;30.10;99.90;;;;;;5071204;28;20074;-61
2022/08/14 02:36:47;;;;;;;35.33;16.75;;;30.20;99.90;;;;;;5055584;28;20072;-61
2022/08/14 02:39:15;;;;;;;27.92;9.77;;;30.20;99.90;;;;;;5071152;28;20078;-61
2022/08/14 02:41:41;;;;;;;22.73;7.63;;;30.30;99.90;;;;;;5071196;28;20092;-59
2022/08/14 02:44:09;;;;;;;31.83;7.18;;;30.30;99.90;;;;;;5070461;28;20075;-60
2022/08/14 02:46:38;;;;;;;28.25;7.18;;;30.30;99.90;;;;;;5070573;28;20067;-59
2022/08/14 02:49:08;;;;;;;17.50;6.20;;;30.40;99.90;;;;;;5071184;28;20099;-62
2022/08/14 02:51:34;;;;;;;23.02;6.45;;;30.50;99.90;;;;;;5069988;28;20083;-62
2022/08/14 02:54:01;;;;;;;27.15;7.18;;;30.50;99.90;;;;;;5071395;28;20068;-60
2022/08/14 02:56:28;;;;;;;32.05;7.50;;;30.60;99.90;;;;;;5071941;28;20719;-63
2022/08/14 02:58:56;;;;;;;26.92;8.35;;;30.70;99.90;;;;;;5070952;28;20072;-61
2022/08/14 03:01:24;;;;;;;37.17;10.95;;;30.70;99.90;;;;;;5087359;28;20096;-61
2022/08/14 03:03:51;;;;;;;50.78;16.52;;;30.70;99.90;;;;;;5086964;28;20099;-61
2022/08/14 03:06:27;;;;;;;40.67;17.80;;;30.70;99.90;;;;;;5053808;28;20072;-62
2022/08/14 03:08:54;;;;;;;40.70;13.15;;;30.80;99.90;;;;;;5071761;28;20076;-61
2022/08/14 03:11:21;;;;;;;41.85;11.52;;;30.70;99.90;;;;;;5071633;28;20068;-61
2022/08/14 03:13:52;;;;;;;32.95;10.57;;;30.80;99.90;;;;;;5075700;28;20099;-61
2022/08/14 03:16:24;;;;;;;34.53;10.93;;;30.80;99.90;;;;;;5072465;28;20076;-61
2022/08/14 03:18:53;;;;;;;42.03;12.60;;;30.90;99.90;;;;;;5068932;28;20165;-61
2022/08/14 03:21:22;;;;;;;36.22;13.25;;;30.90;99.90;;;;;;5070178;28;20092;-61
2022/08/14 03:23:52;;;;;;;49.13;16.00;;;30.90;99.90;;;;;;5070649;28;20076;-61
2022/08/14 03:26:24;;;;;;;32.53;12.27;;;31.00;99.90;;;;;;5068521;28;20436;-61
2022/08/14 03:28:51;;;;;;;37.70;12.15;;;31.00;99.90;;;;;;5071159;28;20087;-60
2022/08/14 03:31:21;;;;;;;41.90;12.30;;;31.10;99.90;;;;;;5071404;28;20079;-61
2022/08/14 03:33:47;;;;;;;30.27;11.27;;;31.10;99.90;;;;;;5070220;28;20107;-60
2022/08/14 03:36:16;;;;;;;42.45;14.88;;;31.10;99.90;;;;;;5068121;28;20072;-62
2022/08/14 03:38:44;;;;;;;34.40;13.10;;;31.10;99.90;;;;;;5069416;28;20170;-60
2022/08/14 03:41:17;;;;;;;32.80;11.65;;;31.20;99.90;;;;;;5076483;28;20094;-60
2022/08/14 03:43:45;;;;;;;29.15;10.82;;;31.30;99.90;;;;;;5070453;28;20159;-60
2022/08/14 03:46:12;;;;;;;30.80;10.00;;;31.40;99.90;;;;;;5086971;28;20605;-61
2022/08/14 03:48:40;;;;;;;31.45;9.57;;;31.40;99.90;;;;;;5068943;28;20104;-63
2022/08/14 03:51:09;;;;;;;29.35;9.05;;;31.50;99.90;;;;;;5070468;28;20105;-60
2022/08/14 03:53:37;;;;;;;33.65;11.55;;;31.50;99.90;;;;;;5070598;28;20084;-60
2022/08/14 03:56:06;;;;;;;42.78;12.48;;;31.50;99.90;;;;;;5085369;28;20577;-58
2022/08/14 03:58:33;;;;;;;57.22;12.45;;;31.40;99.90;;;;;;5085711;28;20075;-60
2022/08/14 04:01:01;;;;;;;62.88;11.20;;;31.40;99.90;;;;;;5066531;28;20456;-61
2022/08/14 04:03:27;;;;;;;45.83;11.63;;;31.40;99.90;;;;;;5068306;28;20125;-60
2022/08/14 04:05:54;;;;;;;62.90;13.32;;;31.40;99.90;;;;;;5069721;28;20071;-61
2022/08/14 04:08:20;;;;;;;78.10;11.13;;;31.40;99.90;;;;;;5069807;28;20452;-62
2022/08/14 04:10:47;;;;;;;70.95;10.32;;;31.40;99.90;;;;;;5069059;28;20076;-60
2022/08/14 04:13:18;;;;;;;62.42;10.50;;;31.40;99.90;;;;;;5069990;28;20171;-60
2022/08/14 04:15:46;;;;;;;52.47;10.00;;;31.40;99.90;;;;;;5086579;28;20080;-62
2022/08/14 04:18:13;;;;;;;72.20;11.82;;;31.40;99.90;;;;;;5069522;28;20515;-59
2022/08/14 04:20:41;;;;;;;71.65;12.63;;;31.40;99.90;;;;;;5067812;28;20168;-60
2022/08/14 04:23:09;;;;;;;64.38;12.43;;;31.40;99.90;;;;;;5067553;28;20747;-59
2022/08/14 04:25:36;;;;;;;81.65;12.27;;;31.50;99.90;;;;;;5068333;28;20201;-60
2022/08/14 04:28:05;;;;;;;62.80;12.52;;;31.60;99.90;;;;;;5070011;28;20064;-61
2022/08/14 04:30:38;;;;;;;74.75;12.27;;;31.60;99.90;;;;;;5068037;28;20071;-61
2022/08/14 04:33:08;;;;;;;60.40;11.10;;;31.60;99.90;;;;;;5084202;28;20114;-60
2022/08/14 04:35:35;;;;;;;73.05;13.75;;;31.60;99.90;;;;;;5067696;28;20165;-59
2022/08/14 04:43:41;;;;;;;86.63;15.18;;;31.50;99.90;;;;;;5069813;28;20102;-63
2022/08/14 04:46:11;;;;;;;79.50;13.90;;;31.50;99.90;;;;;;5068908;28;20474;-60
2022/08/14 04:48:38;;;;;;;79.93;14.35;;;31.50;99.90;;;;;;5068364;28;20075;-61
2022/08/14 04:51:10;;;;;;;93.65;14.30;;;31.50;99.90;;;;;;5067402;28;20453;-62
2022/08/14 04:53:42;;;;;;;94.00;13.77;;;31.50;99.90;;;;;;5071024;28;20075;-60
2022/08/14 04:56:10;;;;;;;73.13;13.20;;;31.50;99.90;;;;;;5068774;28;20102;-61
2022/08/14 04:58:37;;;;;;;76.00;12.05;;;31.60;99.90;;;;;;5084761;28;20098;-57
2022/08/14 05:01:06;;;;;;;79.22;12.57;;;31.60;99.90;;;;;;5067876;28;20090;-60
2022/08/14 05:03:35;;;;;;;79.18;12.90;;;31.60;99.90;;;;;;5084988;28;20159;-58
2022/08/14 05:06:07;;;;;;;62.28;11.68;;;31.60;99.90;;;;;;5084232;28;20528;-60
2022/08/14 05:08:34;;;;;;;52.83;9.45;;;31.60;99.90;;;;;;5067646;28;20072;-61
2022/08/14 05:11:03;;;;;;;59.78;10.63;;;31.60;99.90;;;;;;5068866;28;20110;-59
2022/08/14 05:13:30;;;;;;;61.72;9.38;;;31.60;99.90;;;;;;5069189;28;20437;-58
2022/08/14 05:15:58;;;;;;;46.70;8.63;;;31.60;99.90;;;;;;5070147;28;20095;-58
2022/08/14 05:18:27;;;;;;;61.90;9.00;;;31.70;99.90;;;;;;5084437;28;20115;-62
2022/08/14 05:20:56;;;;;;;55.17;9.32;;;31.70;99.90;;;;;;5067546;28;20088;-59
2022/08/14 05:23:26;;;;;;;58.63;8.95;;;31.70;99.90;;;;;;5069194;28;20521;-62
2022/08/14 05:25:58;;;;;;;55.88;9.25;;;31.70;99.90;;;;;;5083662;28;20453;-60
2022/08/14 05:28:26;;;;;;;53.38;8.93;;;31.70;99.90;;;;;;5067308;28;20533;-61
2022/08/14 05:30:55;;;;;;;59.13;8.98;;;31.70;99.90;;;;;;5084913;28;20107;-60
2022/08/14 05:33:24;;;;;;;52.63;8.93;;;31.70;99.90;;;;;;5068820;28;20080;-63
2022/08/14 05:35:52;;;;;;;59.83;9.32;;;31.70;99.90;;;;;;5068541;28;20227;-58
2022/08/14 05:38:21;;;;;;;54.45;9.50;;;31.70;99.90;;;;;;5067695;28;20067;-61
2022/08/14 05:40:49;;;;;;;56.63;8.95;;;31.60;99.90;;;;;;5068782;28;20080;-61
2022/08/14 05:43:16;;;;;;;57.60;8.90;;;31.60;99.90;;;;;;5084297;28;20088;-60
2022/08/14 05:45:43;;;;;;;55.30;8.65;;;31.70;99.90;;;;;;5067177;28;20101;-62
2022/08/14 05:48:15;;;;;;;71.85;11.02;;;31.60;99.90;;;;;;5069664;28;20091;-62
2022/08/14 05:50:41;;;;;;;67.32;10.63;;;31.60;99.90;;;;;;5072211;28;20540;-61
2022/08/14 05:53:08;;;;;;;49.10;9.90;;;31.60;99.90;;;;;;5071152;28;20086;-59
2022/08/14 05:55:34;;;;;;;67.30;9.43;;;31.60;99.90;;;;;;5088048;28;20083;-60
2022/08/14 05:58:04;;;;;;;61.75;8.30;;;31.60;99.90;;;;;;5071872;28;20217;-61
2022/08/14 06:00:40;;;;;;;51.70;9.15;;;31.70;99.90;;;;;;5072551;28;20121;-61
2022/08/14 06:03:09;;;;;;;50.17;8.27;;;31.70;99.90;;;;;;5071967;28;20072;-62
2022/08/14 06:05:36;;;;;;;47.13;7.82;;;31.70;99.90;;;;;;5087698;28;20580;-61
2022/08/14 06:08:03;;;;;;;45.58;7.47;;;31.70;99.90;;;;;;5086269;28;20183;-62
2022/08/14 06:10:31;;;;;;;35.08;6.95;;;31.80;99.90;;;;;;5086525;28;20075;-60
2022/08/14 06:13:02;;;;;;;30.38;6.65;;;31.80;99.90;;;;;;5070573;28;20520;-60
2022/08/14 06:15:28;;;;;;;33.13;6.05;;;31.80;99.90;;;;;;5088016;28;20225;-62
2022/08/14 06:17:55;;;;;;;41.13;6.57;;;31.80;99.90;;;;;;5087533;28;20115;-61
2022/08/14 06:20:23;;;;;;;36.75;6.43;;;31.80;99.90;;;;;;5072392;28;20148;-62
2022/08/14 06:22:49;;;;;;;39.28;6.82;;;31.90;99.90;;;;;;5071994;28;20083;-60
2022/08/14 06:25:16;;;;;;;31.42;6.35;;;31.90;99.90;;;;;;5070601;28;20536;-60
2022/08/14 06:27:45;;;;;;;31.38;5.60;;;31.90;99.90;;;;;;5087393;28;20092;-60
2022/08/14 06:30:24;;;;;;;33.22;5.78;;;31.90;99.90;;;;;;5087765;28;20078;-61
2022/08/14 06:32:50;;;;;;;18.27;4.68;;;31.90;99.90;;;;;;5070663;28;20094;-61
2022/08/14 06:35:19;;;;;;;24.05;4.97;;;31.80;99.90;;;;;;5072028;28;20067;-62
2022/08/14 06:37:50;;;;;;;23.38;4.35;;;31.80;99.90;;;;;;5087515;28;20084;-64
2022/08/14 06:40:36;;;;;;;23.73;4.20;;;31.80;99.90;;;;;;5074324;28;20183;-60
2022/08/14 06:43:10;;;;;;;18.02;3.72;;;31.80;99.90;;;;;;5087650;28;20560;-61
2022/08/14 06:45:39;;;;;;;18.08;3.80;;;31.80;99.90;;;;;;5071542;28;20141;-61
2022/08/14 06:48:21;;;;;;;17.05;3.65;;;31.70;99.90;;;;;;5070232;28;20133;-64
2022/08/14 06:50:49;;;;;;;10.38;3.05;;;31.80;99.90;;;;;;5076467;28;20071;-62
2022/08/14 06:53:18;;;;;;;12.98;2.92;;;31.70;99.90;;;;;;5070257;28;20191;-60
2022/08/14 06:55:48;;;;;;;11.70;2.97;;;31.70;99.90;;;;;;5087338;28;20658;-61
2022/08/14 06:58:16;;;;;;;13.20;2.80;;;31.70;99.90;;;;;;5071523;28;20508;-60
2022/08/14 07:06:14;;;;;;;15.50;2.97;;;31.70;99.90;;;;;;5071000;28;20133;-61
2022/08/14 07:08:42;;;;;;;13.60;3.28;;;31.70;99.90;;;;;;5071235;28;20150;-63
2022/08/14 07:11:09;;;;;;;16.65;4.18;;;31.70;99.90;;;;;;5071326;28;20142;-62
2022/08/14 07:13:35;;;;;;;14.48;4.80;;;31.70;99.90;;;;;;5069321;28;20122;-62
2022/08/14 07:16:02;;;;;;;25.38;8.30;;;31.70;99.90;;;;;;5057923;28;20076;-63
2022/08/14 07:18:30;;;;;;;23.20;8.60;;;31.60;99.90;;;;;;5086013;28;20449;-63
2022/08/14 07:20:59;;;;;;;20.77;8.20;;;31.70;99.90;;;;;;5086806;28;20214;-61
2022/08/14 07:23:26;;;;;;;19.83;6.97;;;31.70;99.90;;;;;;5086198;28;20068;-62
2022/08/14 07:25:55;;;;;;;30.33;6.90;;;31.60;99.90;;;;;;5086623;28;20072;-62
2022/08/14 07:28:33;;;;;;;17.73;6.28;;;31.70;99.90;;;;;;5069907;28;20422;-67
2022/08/14 07:31:02;;;;;;;16.42;5.95;;;31.60;99.90;;;;;;5086719;28;20100;-62
2022/08/14 07:33:31;;;;;;;17.38;5.85;;;31.60;99.90;;;;;;5069423;28;20167;-62
2022/08/14 07:36:00;;;;;;;14.48;5.18;;;31.60;99.90;;;;;;5086907;28;20444;-62
2022/08/14 07:38:27;;;;;;;18.15;5.10;;;31.60;99.90;;;;;;5067839;28;20175;-59
2022/08/14 07:40:54;;;;;;;19.13;5.10;;;31.50;99.90;;;;;;5075766;28;20508;-59
2022/08/14 07:43:21;;;;;;;9.98;4.00;;;31.60;99.90;;;;;;5069858;28;20072;-59
2022/08/14 07:45:48;;;;;;;11.02;3.72;;;31.60;99.90;;;;;;5086688;28;20084;-59
2022/08/14 07:48:14;;;;;;;15.98;3.58;;;31.50;99.90;;;;;;5086454;28;20452;-61
2022/08/14 07:50:41;;;;;;;10.07;3.30;;;31.50;99.90;;;;;;5068465;28;20079;-61
2022/08/14 07:53:07;;;;;;;18.83;4.07;;;31.50;99.90;;;;;;5071725;28;20088;-61
2022/08/14 07:55:35;;;;;;;10.85;3.30;;;31.50;99.90;;;;;;5037582;28;20527;-62
2022/08/14 07:58:02;;;;;;;11.68;3.65;;;31.40;99.90;;;;;;5069236;28;20080;-61
2022/08/14 08:00:30;;;;;;;12.88;3.60;;;31.50;99.90;;;;;;5069799;28;20095;-60
2022/08/14 08:02:58;;;;;;;12.77;4.03;;;31.40;99.90;;;;;;5086599;28;20517;-62
2022/08/14 08:05:25;;;;;;;11.60;3.60;;;31.40;99.90;;;;;;5068907;28;20552;-62
2022/08/14 08:07:53;;;;;;;14.10;3.65;;;31.40;99.90;;;;;;5068821;28;20081;-61
2022/08/14 08:10:31;;;;;;;11.93;4.32;;;31.40;99.90;;;;;;5070215;28;20066;-59
2022/08/14 08:13:03;;;;;;;12.88;5.28;;;31.40;99.90;;;;;;5068850;28;20099;-60
2022/08/14 08:15:32;;;;;;;21.63;6.53;;;31.40;99.90;;;;;;5069353;28;20076;-61
2022/08/14 08:18:04;;;;;;;16.83;7.13;;;31.40;99.90;;;;;;5068919;28;20108;-60
2022/08/14 08:20:33;;;;;;;16.83;6.93;;;31.30;99.90;;;;;;5085292;28;20091;-60
2022/08/14 08:23:01;;;;;;;20.60;6.15;;;31.30;99.90;;;;;;5069079;28;20091;-60
2022/08/14 08:25:33;;;;;;;13.43;6.57;;;31.30;99.90;;;;;;5068391;28;20072;-61
2022/08/14 08:28:01;;;;;;;22.60;8.07;;;31.30;99.90;;;;;;5050876;28;20074;-60
2022/08/14 08:30:31;;;;;;;18.77;8.02;;;31.20;99.90;;;;;;5068349;28;20163;-60
2022/08/14 08:33:00;;;;;;;19.48;8.05;;;31.20;99.90;;;;;;5083833;28;20104;-61
2022/08/14 08:35:29;;;;;;;19.65;7.80;;;31.20;99.90;;;;;;5069560;28;20110;-61
2022/08/14 08:38:03;;;;;;;21.73;8.30;;;31.20;99.90;;;;;;5067990;28;20076;-60
2022/08/14 08:40:35;;;;;;;20.30;8.85;;;31.20;99.90;;;;;;5072122;28;20083;-60
2022/08/14 08:43:05;;;;;;;18.48;8.98;;;31.20;99.90;;;;;;5069400;28;20068;-61
2022/08/14 08:45:35;;;;;;;27.45;10.40;;;31.10;99.90;;;;;;5084625;28;20091;-55
2022/08/14 08:48:03;;;;;;;23.73;10.90;;;31.10;99.90;;;;;;5084888;28;20383;-60
2022/08/14 08:50:36;;;;;;;24.38;10.60;;;31.10;99.90;;;;;;5068040;28;20071;-60
2022/08/14 08:53:07;;;;;;;22.55;10.63;;;31.10;99.90;;;;;;5067870;28;20448;-60
2022/08/14 08:55:43;;;;;;;22.33;9.93;;;31.10;99.90;;;;;;5067714;28;20110;-60
2022/08/14 08:58:18;;;;;;;28.20;10.65;;;31.10;99.90;;;;;;5067749;28;20128;-61
2022/08/14 09:00:50;;;;;;;23.80;8.93;;;31.10;99.90;;;;;;5067347;28;20140;-61
2022/08/14 09:03:20;;;;;;;21.33;8.13;;;31.10;99.90;;;;;;5069081;28;20092;-62
2022/08/14 09:06:04;;;;;;;14.85;6.95;;;31.10;99.90;;;;;;5069858;28;20522;-60
2022/08/14 09:08:33;;;;;;;14.63;5.75;;;31.10;99.90;;;;;;5068904;28;20072;-61
2022/08/14 09:11:11;;;;;;;18.45;6.10;;;31.10;99.90;;;;;;5068064;28;20120;-61
2022/08/14 09:13:37;;;;;;;16.35;5.90;;;31.10;99.90;;;;;;5067481;28;20078;-61
2022/08/14 09:16:04;;;;;;;18.30;5.07;;;31.10;99.90;;;;;;5067991;28;20091;-61
2022/08/14 09:18:30;;;;;;;13.20;4.72;;;31.10;99.90;;;;;;5066965;28;20116;-62
2022/08/14 09:20:57;;;;;;;14.00;4.53;;;31.10;99.90;;;;;;5068733;28;20123;-63
2022/08/14 09:23:23;;;;;;;14.52;4.65;;;31.10;99.90;;;;;;5067227;28;20072;-61
2022/08/14 09:25:52;;;;;;;12.10;4.95;;;31.10;99.90;;;;;;5068742;28;20533;-60
2022/08/14 09:28:19;;;;;;;13.77;5.05;;;31.00;99.90;;;;;;5067506;28;20687;-61
2022/08/14 09:30:54;;;;;;;10.32;4.28;;;31.00;99.90;;;;;;5068360;28;20521;-60
2022/08/14 09:33:48;;;;;;;13.98;4.55;;;31.00;99.90;;;;;;5068225;28;20075;-60
2022/08/14 09:36:42;;;;;;;10.85;4.80;;;31.00;99.90;;;;;;5084878;28;20086;-61
2022/08/14 09:39:30;;;;;;;17.77;5.50;;;31.00;99.90;;;;;;5067890;28;20079;-60
2022/08/14 09:42:20;;;;;;;18.90;6.07;;;30.90;99.90;;;;;;5065625;28;20101;-60
2022/08/14 09:45:27;;;;;;;10.25;5.82;;;30.90;99.90;;;;;;5068726;28;20080;-60
2022/08/14 09:47:56;;;;;;;15.40;6.17;;;30.90;99.90;;;;;;5085464;28;20076;-60
2022/08/14 09:50:31;;;;;;;13.15;5.85;;;30.90;99.90;;;;;;5085005;28;20073;-61
2022/08/14 09:53:05;;;;;;;18.50;6.47;;;30.90;99.90;;;;;;5084969;28;20099;-61
2022/08/14 09:55:34;;;;;;;12.70;5.43;;;30.90;99.90;;;;;;5069148;28;20076;-61
2022/08/14 09:58:17;;;;;;;11.65;4.70;;;30.90;99.90;;;;;;5083819;28;20072;-60
2022/08/14 10:00:50;;;;;;;14.32;4.32;;;30.80;99.90;;;;;;5069474;28;20096;-61
2022/08/14 10:03:30;;;;;;;8.52;4.43;;;30.90;99.90;;;;;;5066586;28;20086;-61
2022/08/14 10:06:12;;;;;;;12.85;3.80;;;30.80;99.90;;;;;;5066297;28;20158;-60
2022/08/14 10:08:56;;;;;;;8.10;3.45;;;30.80;99.90;;;;;;5068252;28;20064;-61
2022/08/14 10:11:26;;;;;;;10.57;4.07;;;30.80;99.90;;;;;;5083621;28;20492;-61
2022/08/14 10:13:56;;;;;;;7.97;4.10;;;30.80;99.90;;;;;;5085653;28;20084;-62
2022/08/14 10:16:27;;;;;;;8.23;3.58;;;30.80;99.90;;;;;;5068359;28;20437;-62
2022/08/14 10:19:08;;;;;;;7.85;3.15;;;30.80;99.90;;;;;;5084113;28;20203;-62
2022/08/14 10:21:38;;;;;;;8.82;3.45;;;30.80;99.90;;;;;;5067207;28;20084;-61
2022/08/14 10:24:07;;;;;;;10.43;2.85;;;30.80;99.90;;;;;;5084479;28;20075;-61
2022/08/14 10:26:34;;;;;;;9.95;3.10;;;30.70;99.90;;;;;;5067475;28;20083;-62
2022/08/14 10:29:06;;;;;;;5.22;3.00;;;30.70;99.90;;;;;;5066683;28;20574;-60
2022/08/14 10:31:33;;;;;;;9.27;2.92;;;30.70;99.90;;;;;;5085471;28;20075;-61
2022/08/14 10:34:11;;;;;;;7.30;2.72;;;30.70;99.90;;;;;;5069074;28;20068;-62
2022/08/14 10:36:43;;;;;;;7.30;3.03;;;30.70;99.90;;;;;;5087415;28;20067;-61
2022/08/14 10:39:19;;;;;;;12.43;3.33;;;30.70;99.90;;;;;;5070851;28;20096;-62
2022/08/14 10:41:46;;;;;;;9.30;3.70;;;30.70;99.90;;;;;;5070375;28;20204;-60
2022/08/14 10:44:20;;;;;;;8.60;3.35;;;30.60;99.90;;;;;;5073082;28;20320;-61
2022/08/14 10:46:51;;;;;;;9.45;2.83;;;30.60;99.90;;;;;;5074540;28;20577;-62
2022/08/14 10:49:26;;;;;;;10.00;3.60;;;30.70;99.90;;;;;;5070332;28;20080;-60
2022/08/14 10:52:06;;;;;;;8.15;3.45;;;30.70;99.90;;;;;;5071686;28;20139;-60
2022/08/14 10:54:40;;;;;;;7.72;3.70;;;30.60;99.90;;;;;;5054282;28;20078;-61
2022/08/14 10:57:25;;;;;;;6.57;3.10;;;30.60;99.90;;;;;;5069709;28;20114;-63
2022/08/14 10:59:57;;;;;;;7.97;2.83;;;30.60;99.90;;;;;;5071345;28;20072;-61
2022/08/14 11:02:31;;;;;;;11.18;3.13;;;30.60;99.90;;;;;;5069713;28;20088;-60
2022/08/14 11:05:02;;;;;;;6.50;2.70;;;30.60;99.90;;;;;;5071475;28;20072;-61
2022/08/14 11:07:30;;;;;;;9.57;2.63;;;30.60;99.90;;;;;;5069811;28;20087;-61
2022/08/14 11:10:02;;;;;;;8.38;3.00;;;30.60;99.90;;;;;;5086573;28;20072;-61
2022/08/14 11:12:56;;;;;;;8.35;2.60;;;30.50;99.90;;;;;;5053402;28;20084;-62
2022/08/14 11:15:26;;;;;;;6.47;2.83;;;30.50;99.90;;;;;;5069435;28;20076;-60
2022/08/14 11:17:55;;;;;;;6.32;2.65;;;30.50;99.90;;;;;;5086229;28;20114;-60
2022/08/14 11:20:29;;;;;;;9.30;2.80;;;30.50;99.90;;;;;;5070068;28;20118;-62
2022/08/14 11:22:58;;;;;;;6.60;2.63;;;30.50;99.90;;;;;;5087417;28;20096;-62
2022/08/14 11:25:30;;;;;;;7.00;2.78;;;30.50;99.90;;;;;;5069751;28;20068;-61
2022/08/14 11:27:59;;;;;;;6.57;2.70;;;30.40;99.90;;;;;;5070606;28;20189;-61
2022/08/14 11:30:29;;;;;;;12.98;2.67;;;30.50;99.90;;;;;;5070164;28;20177;-63
2022/08/14 11:32:57;;;;;;;7.63;2.80;;;30.50;99.90;;;;;;5054948;28;20167;-61
2022/08/14 11:35:26;;;;;;;8.95;3.13;;;30.50;99.90;;;;;;5066275;28;20072;-60
2022/08/14 11:37:53;;;;;;;9.73;3.50;;;30.40;99.90;;;;;;5085884;28;20133;-61
2022/08/14 11:40:22;;;;;;;12.90;3.60;;;30.40;99.90;;;;;;5069452;28;20567;-63
2022/08/14 11:42:54;;;;;;;14.60;3.95;;;30.40;99.90;;;;;;5084733;28;20555;-60
2022/08/14 11:45:22;;;;;;;13.77;3.63;;;30.40;99.90;;;;;;5085128;28;20075;-62
2022/08/14 11:47:51;;;;;;;10.93;3.65;;;30.40;99.90;;;;;;5070336;28;20110;-60
2022/08/14 11:50:23;;;;;;;9.30;3.45;;;30.40;99.90;;;;;;5085966;28;20069;-61
2022/08/14 11:52:52;;;;;;;10.00;3.00;;;30.40;99.90;;;;;;5085631;28;20084;-61
2022/08/14 11:55:19;;;;;;;9.23;2.83;;;30.40;99.90;;;;;;5069405;28;20150;-61
2022/08/14 11:57:46;;;;;;;10.10;3.00;;;30.40;99.90;;;;;;5069396;28;20083;-61
2022/08/14 12:00:18;;;;;;;9.68;3.17;;;30.30;99.90;;;;;;5068842;28;20080;-61
2022/08/14 12:02:52;;;;;;;9.18;3.65;;;30.30;99.90;;;;;;5086122;28;20163;-61
2022/08/14 12:05:48;;;;;;;11.65;3.90;;;30.30;99.90;;;;;;5069442;28;20375;-61
2022/08/14 12:08:15;;;;;;;13.63;3.65;;;30.30;99.90;;;;;;5030104;28;20080;-61
2022/08/14 12:10:42;;;;;;;10.60;4.05;;;30.30;99.90;;;;;;5019253;28;20083;-61
2022/08/14 12:13:17;;;;;;;11.68;3.90;;;30.20;99.90;;;;;;5019940;28;20131;-61
2022/08/14 12:15:48;;;;;;;9.23;4.20;;;30.20;99.90;;;;;;5017846;28;20191;-61
2022/08/14 12:18:15;;;;;;;16.77;4.80;;;30.20;99.90;;;;;;5037272;28;20116;-61
2022/08/14 12:20:42;;;;;;;13.10;5.30;;;30.20;99.90;;;;;;5047081;28;20089;-61
2022/08/14 12:23:22;;;;;;;12.02;4.70;;;30.20;99.90;;;;;;5030933;28;20080;-61
2022/08/14 12:25:48;;;;;;;17.60;5.18;;;30.20;99.90;;;;;;5046458;28;20076;-61
2022/08/14 12:28:15;;;;;;;15.75;4.60;;;30.20;99.90;;;;;;5023993;28;20089;-62
2022/08/14 12:30:47;;;;;;;8.65;4.40;;;30.20;99.90;;;;;;5029320;28;20084;-60
2022/08/14 12:33:24;;;;;;;10.07;4.00;;;30.20;99.90;;;;;;5030075;28;20080;-61
2022/08/14 12:35:53;;;;;;;10.57;4.22;;;30.10;99.90;;;;;;5014102;28;20528;-61
2022/08/14 12:38:37;;;;;;;12.20;4.00;;;30.10;99.90;;;;;;5028804;28;20163;-61
2022/08/14 12:41:14;;;;;;;12.07;3.90;;;30.10;99.90;;;;;;5013899;28;20094;-62
2022/08/14 12:43:50;;;;;;;9.25;3.20;;;30.00;99.90;;;;;;5049988;28;20791;-61
2022/08/14 12:46:40;;;;;;;11.05;3.38;;;30.00;99.90;;;;;;5069142;28;20521;-61
2022/08/14 12:49:16;;;;;;;7.43;2.90;;;30.00;99.90;;;;;;5084251;28;20084;-62
2022/08/14 12:51:54;;;;;;;11.02;3.28;;;30.00;99.90;;;;;;5066714;28;20102;-62
2022/08/14 12:54:20;;;;;;;8.40;3.40;;;30.00;99.90;;;;;;5083706;28;20162;-61
2022/08/14 12:56:47;;;;;;;8.27;3.30;;;30.00;99.90;;;;;;5084426;28;20635;-61
2022/08/14 12:59:15;;;;;;;6.22;3.20;;;30.00;99.90;;;;;;5067408;28;20084;-61
2022/08/14 13:01:44;;;;;;;5.65;3.17;;;29.90;99.90;;;;;;5050299;28;20088;-61
2022/08/14 13:04:15;;;;;;;7.07;3.22;;;29.90;99.90;;;;;;5054520;28;20079;-62
2022/08/14 13:06:46;;;;;;;9.98;4.05;;;30.00;99.90;;;;;;5083054;28;20152;-62
2022/08/14 13:09:17;;;;;;;10.02;3.95;;;29.90;99.90;;;;;;5069414;28;20105;-59